Webster Springs, WV

11:50 PM EST on November 22, 2014 (GMT -0500)
Webster Springs | Change Station
CLOSE
Current Station
Personal Weather Station
Location: Webster Springs, WV
Elevation: 1526 ft
Nearby Weather Stations

Elev 1526 ft 38.48 °N, 80.42 °W | Updated 16 seconds ago

Mostly Cloudy
Mostly Cloudy
34.5 °F
Feels Like 34 °F
N
1.0
Wind Variable Wind from SE
Gusts 2.0 mph

Today
High -- | Low -- °F
--% Chance of Precip.
Yesterday
High -- | Low -- °F
Precip. -- in
7:10 AM 5:04 PM
New Moon, 1% visible
Pressure 30.15 in
Visibility 10.0 miles
Clouds Overcast 9000 ft
Windchill 34 °F
Dew Point 30 °F
Humidity 82%
Rainfall 0.00 in
Snow Depth Not available.
UV 0 out of 12
Pollen .10 out of 12
Air Quality Not available.
Flu Activity Not available.
METAR KW22 230435Z AUTO 18004KT 10SM OVC090 09/M06 A3015 RMK AO2

More Conditions Fewer Conditions

Pressure 30.15 in
Visibility 10.0 miles
Clouds Overcast 9000 ft
Windchill 34 °F
Dew Point 30 °F
Humidity 82%
Rainfall 0.00 in
Snow Depth Not available.
UV 0 out of 12
Pollen .10 out of 12
Air Quality Not available.
Flu Activity Not available.
METAR KW22 230435Z AUTO 18004KT 10SM OVC090 09/M06 A3015 RMK AO2

More Conditions Fewer Conditions

10-Day Weather Forecast

Almanac

Astronomy

Nov. 22, 2014 Rise Set
Actual Time
Civil Twilight
Nautical Twilight
Astronomical Twilight
Moon
Length of Visible Light
Length of Day
Tomorrow will be .
, % of the Moon is Illuminated

Today's Extremes

State Highs State Lows

Community

WunderPhotos

Upload Photos

1,773,003 photos uploaded!

WunderBlogs® & News

Nearby

Air Quality

  Air Quality AQ Index Pollutant
Not available.

Snow Depth

Station Depth Elevation

Earthquake Activity

City Distance Mag. Time & Date
Minimum magnitude displayed is 2.5.

Coastal Water Temperatures

Place Temperature

Nearby Weather Stations